createdAt,value
2022-10-17T00:01:52.649Z,13.68
2022-10-17T00:04:19.031Z,15.88
2022-10-17T00:06:47.735Z,15.35
2022-10-17T00:09:14.098Z,16.02
2022-10-17T00:11:40.628Z,19.45
2022-10-17T00:14:07.035Z,19.70
2022-10-17T00:16:36.573Z,6.88
2022-10-17T00:19:06.824Z,17.95
2022-10-17T00:21:33.805Z,15.45
2022-10-17T00:24:00.658Z,12.80
2022-10-17T00:26:28.496Z,18.27
2022-10-17T00:28:55.573Z,7.95
2022-10-17T00:31:22.787Z,14.52
2022-10-17T00:33:49.244Z,20.67
2022-10-17T00:36:21.620Z,15.75
2022-10-17T00:38:49.956Z,12.77
2022-10-17T00:41:17.771Z,11.50
2022-10-17T00:43:55.456Z,17.73
2022-10-17T00:46:23.068Z,15.60
2022-10-17T00:48:51.007Z,11.48
2022-10-17T00:51:18.290Z,10.73
2022-10-17T00:53:44.747Z,11.93
2022-10-17T00:56:11.394Z,10.75
2022-10-17T00:58:37.725Z,17.15
2022-10-17T01:01:04.159Z,15.05
2022-10-17T01:03:30.610Z,15.75
2022-10-17T01:05:57.289Z,15.70
2022-10-17T01:08:23.930Z,12.90
2022-10-17T01:11:09.127Z,14.35
2022-10-17T01:13:44.842Z,14.38
2022-10-17T01:16:11.144Z,12.95
2022-10-17T01:18:43.459Z,14.43
2022-10-17T01:21:28.659Z,21.13
2022-10-17T01:24:07.298Z,10.25
2022-10-17T01:26:42.662Z,11.90
2022-10-17T01:29:27.747Z,13.43
2022-10-17T01:31:54.099Z,16.70
2022-10-17T01:34:20.435Z,13.35
2022-10-17T01:37:14.781Z,13.90
2022-10-17T01:39:47.905Z,16.88
2022-10-17T01:42:19.686Z,13.05
2022-10-17T01:44:57.201Z,10.40
2022-10-17T01:47:25.838Z,8.88
2022-10-17T01:49:57.708Z,8.15
2022-10-17T01:52:28.782Z,12.25
2022-10-17T01:54:56.980Z,13.50
2022-10-17T01:57:27.305Z,11.80
2022-10-17T01:59:57.527Z,19.83
2022-10-17T02:02:25.491Z,11.93
2022-10-17T02:04:52.266Z,13.02
2022-10-17T02:07:18.642Z,24.60
2022-10-17T02:09:44.995Z,14.77
2022-10-17T02:12:30.139Z,13.45
2022-10-17T02:15:15.333Z,9.07
2022-10-17T02:17:50.919Z,15.07
2022-10-17T02:20:23.744Z,8.57
2022-10-17T02:22:50.044Z,12.38
2022-10-17T02:25:22.659Z,16.00
2022-10-17T02:27:54.081Z,15.73
2022-10-17T02:30:26.047Z,7.60
2022-10-17T02:33:05.639Z,13.07
2022-10-17T02:35:33.366Z,15.18
2022-10-17T02:38:00.530Z,13.77
2022-10-17T02:40:27.927Z,20.52
2022-10-17T02:42:54.762Z,10.25
2022-10-17T02:45:23.137Z,12.90
2022-10-17T02:48:04.763Z,15.00
2022-10-17T02:50:51.362Z,16.50
2022-10-17T02:53:23.249Z,9.85
2022-10-17T02:55:53.700Z,12.85
2022-10-17T02:58:22.278Z,13.23
2022-10-17T03:00:49.181Z,20.33
2022-10-17T03:03:24.124Z,17.98
2022-10-17T03:05:50.605Z,28.80
2022-10-17T03:08:16.908Z,11.27
2022-10-17T03:10:43.260Z,10.25
2022-10-17T03:13:09.663Z,12.07
2022-10-17T03:15:36.221Z,13.98
2022-10-17T03:18:02.598Z,26.75
2022-10-17T03:20:28.968Z,16.73
2022-10-17T03:22:55.333Z,19.38
2022-10-17T03:25:21.712Z,21.80
2022-10-17T03:27:48.085Z,12.93
2022-10-17T03:30:14.541Z,11.27
2022-10-17T03:32:40.856Z,8.75
2022-10-17T03:35:09.217Z,18.92
2022-10-17T03:37:37.628Z,14.73
2022-10-17T03:40:04.177Z,11.35
2022-10-17T03:42:31.342Z,16.25
2022-10-17T03:44:57.688Z,15.07
2022-10-17T03:47:24.087Z,16.10
2022-10-17T03:49:50.467Z,10.85
2022-10-17T03:52:16.841Z,22.40
2022-10-17T03:54:43.276Z,21.05
2022-10-17T03:57:09.663Z,13.98
2022-10-17T03:59:36.589Z,12.75
2022-10-17T04:02:03.066Z,13.63
2022-10-17T04:04:30.542Z,15.25
2022-10-17T04:06:56.940Z,16.13
2022-10-17T04:09:23.290Z,21.52
2022-10-17T04:11:49.729Z,18.92
2022-10-17T04:14:16.162Z,17.67
2022-10-17T04:16:42.508Z,16.48
2022-10-17T04:19:11.994Z,16.05
2022-10-17T04:21:38.322Z,16.35
2022-10-17T04:24:04.831Z,14.43
2022-10-17T04:26:31.195Z,12.07
2022-10-17T04:28:57.612Z,17.58
2022-10-17T04:31:24.071Z,19.92
2022-10-17T04:33:50.820Z,15.23
2022-10-17T04:36:18.249Z,14.25
2022-10-17T04:38:44.882Z,15.85
2022-10-17T04:41:13.407Z,16.83
2022-10-17T04:43:39.941Z,18.10
2022-10-17T04:46:08.388Z,19.60
2022-10-17T04:48:34.866Z,21.00
2022-10-17T04:51:05.623Z,21.65
2022-10-17T04:53:32.954Z,17.10
2022-10-17T04:55:59.473Z,15.20
2022-10-17T04:58:26.275Z,19.95
2022-10-17T05:00:52.711Z,15.27
2022-10-17T05:03:19.160Z,27.15
2022-10-17T05:05:45.551Z,16.88
2022-10-17T05:08:11.980Z,16.88
2022-10-17T05:10:42.724Z,19.80
2022-10-17T05:13:09.661Z,15.63
2022-10-17T05:15:36.426Z,13.50
2022-10-17T05:18:03.355Z,17.40
2022-10-17T05:20:29.996Z,13.95
2022-10-17T05:22:58.724Z,14.82
2022-10-17T05:25:25.087Z,9.98
2022-10-17T05:27:51.547Z,14.90
2022-10-17T05:30:17.949Z,15.32
2022-10-17T05:32:44.619Z,16.08
2022-10-17T05:35:11.091Z,19.85
2022-10-17T05:37:37.410Z,13.70
2022-10-17T05:40:04.044Z,18.63
2022-10-17T05:42:30.711Z,15.95
2022-10-17T05:44:57.256Z,15.23
2022-10-17T05:47:23.661Z,13.13
2022-10-17T05:49:52.508Z,18.20
2022-10-17T05:52:19.221Z,18.50
2022-10-17T05:54:45.570Z,24.65
2022-10-17T05:57:12.110Z,28.55
2022-10-17T05:59:38.635Z,13.50
2022-10-17T06:02:05.223Z,24.00
2022-10-17T06:04:31.665Z,19.83
2022-10-17T06:06:58.045Z,17.50
2022-10-17T06:09:24.479Z,17.25
2022-10-17T06:11:50.911Z,11.35
2022-10-17T06:14:17.254Z,20.45
2022-10-17T06:16:43.683Z,15.90
2022-10-17T06:19:11.581Z,17.15
2022-10-17T06:21:38.898Z,8.98
2022-10-17T06:24:05.332Z,14.93
2022-10-17T06:26:31.675Z,14.45
2022-10-17T06:28:58.113Z,16.15
2022-10-17T06:31:24.465Z,11.60
2022-10-17T06:33:50.860Z,24.70
2022-10-17T06:36:17.240Z,25.15
2022-10-17T06:38:43.571Z,18.35
2022-10-17T06:41:14.667Z,13.55
2022-10-17T06:43:46.409Z,14.90
2022-10-17T06:46:15.101Z,20.05
2022-10-17T06:48:41.722Z,14.05
2022-10-17T06:51:11.287Z,14.68
2022-10-17T06:53:38.565Z,20.50
2022-10-17T06:56:05.757Z,21.95
2022-10-17T06:58:33.640Z,19.30
2022-10-17T07:01:01.120Z,19.77
2022-10-17T07:03:27.864Z,15.98
2022-10-17T07:05:54.960Z,23.88
2022-10-17T07:08:21.829Z,20.88
2022-10-17T07:10:48.205Z,16.50
2022-10-17T07:13:14.591Z,22.13
2022-10-17T07:15:41.167Z,20.77
2022-10-17T07:18:07.583Z,12.75
2022-10-17T07:20:34.354Z,23.88
2022-10-17T07:23:00.775Z,19.70
2022-10-17T07:25:27.144Z,21.25
2022-10-17T07:27:53.477Z,22.35
2022-10-17T07:30:20.277Z,22.08
2022-10-17T07:32:46.890Z,25.45
2022-10-17T07:35:13.777Z,22.13
2022-10-17T07:37:40.181Z,25.20
2022-10-17T07:40:07.830Z,18.55
2022-10-17T07:42:36.437Z,16.65
2022-10-17T07:45:03.034Z,13.00
2022-10-17T07:47:31.521Z,26.13
2022-10-17T07:49:58.287Z,17.90
2022-10-17T07:52:24.736Z,17.10
2022-10-17T07:54:51.080Z,21.65
2022-10-17T07:57:17.398Z,28.38
2022-10-17T07:59:43.777Z,19.20
2022-10-17T08:02:18.438Z,20.38
2022-10-17T08:04:44.837Z,24.05
2022-10-17T08:07:20.605Z,22.42
2022-10-17T08:09:48.392Z,17.88
2022-10-17T08:12:15.264Z,20.27
2022-10-17T08:14:42.225Z,27.88
2022-10-17T08:17:08.922Z,24.60
2022-10-17T08:19:37.846Z,23.25
2022-10-17T08:22:04.234Z,18.88
2022-10-17T08:24:30.564Z,21.38
2022-10-17T08:26:58.302Z,24.30
2022-10-17T08:29:25.142Z,22.13
2022-10-17T08:31:54.108Z,24.45
2022-10-17T08:34:25.024Z,18.48
2022-10-17T08:36:51.607Z,17.70
2022-10-17T08:39:17.924Z,16.23
2022-10-17T08:41:50.638Z,20.60
2022-10-17T08:44:23.347Z,20.42
2022-10-17T08:46:51.848Z,24.15
2022-10-17T08:49:36.678Z,21.90
2022-10-17T08:52:06.511Z,19.30
2022-10-17T08:54:43.342Z,15.05
2022-10-17T08:57:12.255Z,15.70
2022-10-17T08:59:38.954Z,23.40
2022-10-17T09:02:23.989Z,22.92
2022-10-17T09:04:53.573Z,18.17
2022-10-17T09:07:35.248Z,27.02
2022-10-17T09:10:07.783Z,24.33
2022-10-17T09:12:51.994Z,25.10
2022-10-17T09:15:24.474Z,18.55
2022-10-17T09:17:52.164Z,13.18
2022-10-17T09:20:26.573Z,24.70
2022-10-17T09:22:53.003Z,15.85
2022-10-17T09:25:20.671Z,14.05
2022-10-17T09:27:52.456Z,17.75
2022-10-17T09:30:43.613Z,18.90
2022-10-17T09:33:23.190Z,15.57
2022-10-17T09:38:38.173Z,10.68
2022-10-17T09:41:19.977Z,21.05
2022-10-17T09:43:55.845Z,22.13
2022-10-17T09:46:27.050Z,20.17
2022-10-17T09:49:12.324Z,23.88
2022-10-17T09:51:41.363Z,17.17
2022-10-17T09:54:19.877Z,13.82
2022-10-17T09:57:06.018Z,16.88
2022-10-17T09:59:36.588Z,16.35
2022-10-17T10:02:41.471Z,14.48
2022-10-17T10:05:21.556Z,17.25
2022-10-17T10:08:04.861Z,11.87
2022-10-17T10:10:32.163Z,16.45
2022-10-17T10:13:16.954Z,13.77
2022-10-17T10:15:44.861Z,14.05
2022-10-17T10:18:28.192Z,14.50
2022-10-17T10:21:12.036Z,11.30
2022-10-17T10:23:40.165Z,11.15
2022-10-17T10:26:27.212Z,17.90
2022-10-17T10:28:56.977Z,18.92
2022-10-17T10:31:28.459Z,22.13
2022-10-17T10:33:57.628Z,14.20
2022-10-17T10:36:24.388Z,14.45
2022-10-17T10:38:53.534Z,14.80
2022-10-17T10:41:19.864Z,15.07
2022-10-17T10:43:47.782Z,20.08
2022-10-17T10:46:21.777Z,17.98
2022-10-17T10:48:53.752Z,14.85
2022-10-17T10:51:23.573Z,12.27
2022-10-17T10:53:51.794Z,14.98
2022-10-17T10:56:24.050Z,18.58
2022-10-17T10:58:55.258Z,31.95
2022-10-17T11:01:30.810Z,14.30
2022-10-17T11:04:05.048Z,23.65
2022-10-17T11:06:34.438Z,12.38
2022-10-17T11:09:03.758Z,14.32
2022-10-17T11:11:39.213Z,12.20
2022-10-17T11:14:05.578Z,9.70
2022-10-17T11:16:34.123Z,9.68
2022-10-17T11:19:19.282Z,18.13
2022-10-17T11:21:53.566Z,16.83
2022-10-17T11:24:19.886Z,13.02
2022-10-17T11:26:50.421Z,11.70
2022-10-17T11:29:16.761Z,17.00
2022-10-17T11:31:45.088Z,21.38
2022-10-17T11:34:28.067Z,18.10
2022-10-17T11:36:59.697Z,12.85
2022-10-17T11:39:48.478Z,8.35
2022-10-17T11:42:27.544Z,23.52
2022-10-17T11:44:58.050Z,16.90
2022-10-17T11:47:24.376Z,13.02
2022-10-17T11:49:53.244Z,13.95
2022-10-17T11:52:55.531Z,11.57
2022-10-17T11:55:25.879Z,14.88
2022-10-17T12:00:39.282Z,11.13
2022-10-17T12:03:26.770Z,15.65
2022-10-17T12:05:56.206Z,10.40
2022-10-17T12:08:30.612Z,20.98
2022-10-17T12:11:19.237Z,8.30
2022-10-17T12:13:45.612Z,21.15
2022-10-17T12:16:21.031Z,12.18
2022-10-17T12:18:49.106Z,13.82
2022-10-17T12:21:17.600Z,15.98
2022-10-17T12:23:51.900Z,21.25
2022-10-17T12:26:26.144Z,13.85
2022-10-17T12:28:52.663Z,8.60
2022-10-17T12:31:29.596Z,11.70
2022-10-17T12:34:04.106Z,17.50
2022-10-17T12:36:30.471Z,10.02
2022-10-17T12:39:03.441Z,15.18
2022-10-17T12:41:38.818Z,15.02
2022-10-17T12:44:14.710Z,21.88
2022-10-17T12:46:41.378Z,17.83
2022-10-17T12:49:20.195Z,21.13
2022-10-17T12:52:05.525Z,10.57
2022-10-17T12:54:37.975Z,16.50
2022-10-17T12:57:20.544Z,13.63
2022-10-17T12:59:47.388Z,13.65
2022-10-17T13:02:18.790Z,9.63
2022-10-17T13:04:45.329Z,19.08
2022-10-17T13:07:16.682Z,13.00
2022-10-17T13:09:43.899Z,22.83
2022-10-17T13:12:15.226Z,14.10
2022-10-17T13:14:42.792Z,12.20
2022-10-17T13:17:22.833Z,11.52
2022-10-17T13:19:49.253Z,14.65
2022-10-17T13:22:15.570Z,10.13
2022-10-17T13:24:42.160Z,11.82
2022-10-17T13:27:26.930Z,15.60
2022-10-17T13:29:56.136Z,8.60
2022-10-17T13:32:23.472Z,13.20
2022-10-17T13:35:09.288Z,14.48
2022-10-17T13:37:36.686Z,16.02
2022-10-17T13:40:24.807Z,22.67
2022-10-17T13:42:54.997Z,13.73
2022-10-17T13:45:24.444Z,12.85
2022-10-17T13:47:50.846Z,10.95
2022-10-17T13:50:42.976Z,11.80
2022-10-17T13:53:06.742Z,11.70
2022-10-17T13:55:33.095Z,9.18
2022-10-17T13:58:16.503Z,18.73
2022-10-17T14:00:44.176Z,11.95
2022-10-17T14:03:11.116Z,16.63
2022-10-17T14:05:57.432Z,6.90
2022-10-17T14:08:24.311Z,15.80
2022-10-17T14:10:51.187Z,11.65
2022-10-17T14:13:27.923Z,15.35
2022-10-17T14:15:55.819Z,12.32
2022-10-17T14:18:35.751Z,11.73
2022-10-17T14:23:50.080Z,10.05
2022-10-17T14:26:21.389Z,9.82
2022-10-17T14:29:04.770Z,13.73
2022-10-17T14:31:32.792Z,12.38
2022-10-17T14:34:01.071Z,13.55
2022-10-17T14:36:48.895Z,21.00
2022-10-17T14:39:23.527Z,14.15
2022-10-17T14:41:51.044Z,11.82
2022-10-17T14:44:33.719Z,7.88
2022-10-17T14:47:05.946Z,14.15
2022-10-17T14:49:37.624Z,11.85
2022-10-17T14:52:23.735Z,12.27
2022-10-17T14:54:50.102Z,10.07
2022-10-17T14:57:31.770Z,10.30
2022-10-17T14:59:58.300Z,13.38
2022-10-17T15:02:25.546Z,7.75
2022-10-17T15:04:52.282Z,6.15
2022-10-17T15:07:18.956Z,7.30
2022-10-17T15:09:45.707Z,9.90
2022-10-17T15:12:13.779Z,5.90
2022-10-17T15:14:40.210Z,10.85
2022-10-17T15:17:14.173Z,12.05
2022-10-17T15:19:40.606Z,7.30
2022-10-17T15:22:06.964Z,14.05
2022-10-17T15:24:36.434Z,11.65
2022-10-17T15:27:02.775Z,9.70
2022-10-17T15:29:29.177Z,9.70
2022-10-17T15:31:55.528Z,9.35
2022-10-17T15:34:21.864Z,10.55
2022-10-17T15:36:49.552Z,9.00
2022-10-17T15:39:16.011Z,14.93
2022-10-17T15:41:42.445Z,11.48
2022-10-17T15:44:08.961Z,9.23
2022-10-17T15:46:36.006Z,6.47
2022-10-17T15:49:04.089Z,10.27
2022-10-17T15:51:30.566Z,12.05
2022-10-17T15:53:56.961Z,7.82
2022-10-17T15:56:28.610Z,11.85
2022-10-17T15:58:57.071Z,17.48
2022-10-17T16:01:24.893Z,6.25
2022-10-17T16:03:51.414Z,8.13
2022-10-17T16:06:18.795Z,6.47
2022-10-17T16:08:45.917Z,9.80
2022-10-17T16:11:16.332Z,6.88
2022-10-17T16:13:43.383Z,8.07
2022-10-17T16:16:12.026Z,11.20
2022-10-17T16:18:38.449Z,6.88
2022-10-17T16:21:04.857Z,7.82
2022-10-17T16:23:31.474Z,8.02
2022-10-17T16:25:57.838Z,9.40
2022-10-17T16:28:24.228Z,7.22
2022-10-17T16:30:50.634Z,7.55
2022-10-17T16:33:20.056Z,8.88
2022-10-17T16:35:49.318Z,5.97
2022-10-17T16:38:15.766Z,5.78
2022-10-17T16:40:42.306Z,6.40
2022-10-17T16:43:14.684Z,6.25
2022-10-17T16:45:41.151Z,7.45
2022-10-17T16:48:08.887Z,7.18
2022-10-17T16:50:38.487Z,6.72
2022-10-17T16:53:04.810Z,5.05
2022-10-17T16:55:31.256Z,4.03
2022-10-17T16:57:58.082Z,9.10
2022-10-17T17:00:24.629Z,9.27
2022-10-17T17:02:51.022Z,12.27
2022-10-17T17:05:17.411Z,8.73
2022-10-17T17:07:43.933Z,7.40
2022-10-17T17:10:10.327Z,6.55
2022-10-17T17:12:37.009Z,8.35
2022-10-17T17:15:03.983Z,8.55
2022-10-17T17:17:44.272Z,8.18
2022-10-17T17:20:15.125Z,8.45
2022-10-17T17:22:41.453Z,13.20
2022-10-17T17:25:08.091Z,14.45
2022-10-17T17:27:34.423Z,20.23
2022-10-17T17:30:00.766Z,13.02
2022-10-17T17:32:27.339Z,9.77
2022-10-17T17:34:54.414Z,11.80
2022-10-17T17:37:20.739Z,8.52
2022-10-17T17:39:47.111Z,9.95
2022-10-17T17:42:13.422Z,7.90
2022-10-17T17:44:39.923Z,10.35
2022-10-17T17:47:06.319Z,10.50
2022-10-17T17:49:32.668Z,10.70
2022-10-17T17:51:59.058Z,9.30
2022-10-17T17:54:25.469Z,8.20
2022-10-17T17:56:51.842Z,9.38
2022-10-17T17:59:18.165Z,6.07
2022-10-17T18:01:44.645Z,13.35
2022-10-17T18:04:11.177Z,7.28
2022-10-17T18:06:37.951Z,8.25
2022-10-17T18:09:04.943Z,11.10
2022-10-17T18:11:31.495Z,9.55
2022-10-17T18:13:58.934Z,12.82
2022-10-17T18:16:25.970Z,9.48
2022-10-17T18:18:52.672Z,11.10
2022-10-17T18:21:19.086Z,12.15
2022-10-17T18:23:46.582Z,14.48
2022-10-17T18:26:13.309Z,14.52
2022-10-17T18:31:09.748Z,8.35
2022-10-17T18:33:36.212Z,19.02
2022-10-17T18:36:07.334Z,11.63
2022-10-17T18:38:33.980Z,15.55
2022-10-17T18:41:08.197Z,19.92
2022-10-17T18:43:38.285Z,20.40
2022-10-17T18:46:08.539Z,21.03
2022-10-17T18:48:39.083Z,27.75
2022-10-17T18:51:05.556Z,25.85
2022-10-17T18:53:32.030Z,34.47
2022-10-17T18:55:58.526Z,51.17
2022-10-17T18:58:24.990Z,52.80
2022-10-17T19:00:51.365Z,84.30
2022-10-17T19:03:18.238Z,80.57
2022-10-17T19:05:47.739Z,82.50
2022-10-17T19:08:14.985Z,70.70
2022-10-17T19:10:42.084Z,72.78
2022-10-17T19:13:09.419Z,66.82
2022-10-17T19:15:35.946Z,69.35
2022-10-17T19:18:02.881Z,62.75
2022-10-17T19:20:29.335Z,52.28
2022-10-17T19:22:55.700Z,60.88
2022-10-17T19:25:22.071Z,59.03
2022-10-17T19:27:48.431Z,51.95
2022-10-17T19:30:14.791Z,56.30
2022-10-17T19:32:41.213Z,49.00
2022-10-17T19:35:11.375Z,41.35
2022-10-17T19:37:37.851Z,38.72
2022-10-17T19:40:04.459Z,39.58
2022-10-17T19:42:31.010Z,30.88
2022-10-17T19:44:57.641Z,35.88
2022-10-17T19:47:24.037Z,29.55
2022-10-17T19:49:50.346Z,29.27
2022-10-17T19:52:16.702Z,36.60
2022-10-17T19:54:43.058Z,30.75
2022-10-17T19:57:10.562Z,27.95
2022-10-17T19:59:37.090Z,24.67
2022-10-17T20:02:03.635Z,19.75
2022-10-17T20:04:30.073Z,19.58
2022-10-17T20:06:59.767Z,24.48
2022-10-17T20:09:26.652Z,23.95
2022-10-17T20:11:53.128Z,24.15
2022-10-17T20:14:19.495Z,29.40
2022-10-17T20:16:50.096Z,25.23
2022-10-17T20:19:16.493Z,23.98
2022-10-17T20:21:43.239Z,21.05
2022-10-17T20:24:11.848Z,21.50
2022-10-17T20:26:39.440Z,24.98
2022-10-17T20:29:10.690Z,19.08
2022-10-17T20:31:37.918Z,20.00
2022-10-17T20:34:04.349Z,19.05
2022-10-17T20:36:30.720Z,15.23
2022-10-17T20:38:57.828Z,20.13
2022-10-17T20:41:24.965Z,25.00
2022-10-17T20:43:55.357Z,19.38
2022-10-17T20:46:35.794Z,20.98
2022-10-17T20:49:04.114Z,23.05
2022-10-17T20:51:30.535Z,16.77
2022-10-17T20:56:29.273Z,15.80
2022-10-17T20:58:56.694Z,17.98
2022-10-17T21:01:23.432Z,17.67
2022-10-17T21:03:50.264Z,20.25
2022-10-17T21:06:17.230Z,21.25
2022-10-17T21:08:43.919Z,31.40
2022-10-17T21:11:15.490Z,24.10
2022-10-17T21:13:42.012Z,19.20
2022-10-17T21:16:11.630Z,23.17
2022-10-17T21:18:38.438Z,14.18
2022-10-17T21:21:09.170Z,14.20
2022-10-17T21:23:35.749Z,16.92
2022-10-17T21:26:03.771Z,19.90
2022-10-17T21:28:30.860Z,21.77
2022-10-17T21:31:07.167Z,22.75
2022-10-17T21:33:33.661Z,18.58
2022-10-17T21:36:00.187Z,25.17
2022-10-17T21:38:26.572Z,19.40
2022-10-17T21:40:55.357Z,19.08
2022-10-17T21:43:22.640Z,17.13
2022-10-17T21:45:49.262Z,16.48
2022-10-17T21:48:17.062Z,20.85
2022-10-17T21:50:43.451Z,13.05
2022-10-17T21:53:09.853Z,19.45
2022-10-17T21:55:37.283Z,18.80
2022-10-17T21:58:04.424Z,21.20
2022-10-17T22:00:31.107Z,21.15
2022-10-17T22:02:57.738Z,21.75
2022-10-17T22:05:24.145Z,30.52
2022-10-17T22:07:50.534Z,17.50
2022-10-17T22:10:16.984Z,17.23
2022-10-17T22:12:43.455Z,19.20
2022-10-17T22:15:09.953Z,26.13
2022-10-17T22:17:36.372Z,10.15
2022-10-17T22:20:02.873Z,10.00
2022-10-17T22:22:30.163Z,17.20
2022-10-17T22:24:56.534Z,11.80
2022-10-17T22:27:22.990Z,12.45
2022-10-17T22:29:52.563Z,13.30
2022-10-17T22:32:21.679Z,11.95
2022-10-17T22:34:49.082Z,19.00
2022-10-17T22:37:15.490Z,14.40
2022-10-17T22:39:41.971Z,12.85
2022-10-17T22:42:08.321Z,16.15
2022-10-17T22:44:34.694Z,14.55
2022-10-17T22:47:01.086Z,19.63
2022-10-17T22:49:27.447Z,16.40
2022-10-17T22:51:53.806Z,14.38
2022-10-17T22:54:20.186Z,8.02
2022-10-17T22:56:46.608Z,16.70
2022-10-17T22:59:13.082Z,13.32
2022-10-17T23:01:39.558Z,9.45
2022-10-17T23:04:05.980Z,6.20
2022-10-17T23:06:32.376Z,10.15
2022-10-17T23:08:58.749Z,7.20
2022-10-17T23:11:25.212Z,10.00
2022-10-17T23:13:51.827Z,12.23
2022-10-17T23:16:18.303Z,6.43
2022-10-17T23:18:44.742Z,9.57
2022-10-17T23:21:11.305Z,4.18
2022-10-17T23:23:37.649Z,10.82
2022-10-17T23:26:09.306Z,7.45
2022-10-17T23:28:36.024Z,5.25
2022-10-17T23:31:17.017Z,8.35
2022-10-17T23:33:44.908Z,6.35
2022-10-17T23:36:12.562Z,10.48
2022-10-17T23:38:39.459Z,10.07
2022-10-17T23:41:05.985Z,5.22
2022-10-17T23:43:34.182Z,5.30
2022-10-17T23:46:01.567Z,9.52
2022-10-17T23:48:28.193Z,5.70
2022-10-17T23:50:55.885Z,8.68
2022-10-17T23:53:25.485Z,11.23
2022-10-17T23:55:52.252Z,7.28
2022-10-17T23:58:18.585Z,12.30
